Soure, Brazil
Current Conditions -  °F | °C
As of 6:00 PM on Thursday 23 Oct 2014 (Local Time) from SBBE Reporting Station
Broken Clouds Broken Clouds  
Wind Chill: 81°   Ceiling: 10000
Heat Index: 86°   Visibility: 6mi
Dew Point: 75°   Wind: 3mph
Humidity: 84%   Direction: 60°ENE
Pressure: 29.8"   Gusts: NA
Location:  0.72°S, 48.52°W
Report Text: SBBE 232100Z 06003KT 9999 SCT025 BKN100 27/24 Q1009
Loading
Personal Weather Stations






























Interactive Weather Map
Tropical Storm Tracking
New forecast layout! Learn more

10-Day Weather Forecast

Advertisements
Track Severe Weather on mobile